createdAt,value
2023-04-18T00:02:17.562Z,4.93
2023-04-18T00:04:47.260Z,5.82
2023-04-18T00:07:18.843Z,5.27
2023-04-18T00:09:47.267Z,5.22
2023-04-18T00:12:15.827Z,6.07
2023-04-18T00:14:44.312Z,5.55
2023-04-18T00:17:13.429Z,6.07
2023-04-18T00:19:43.356Z,5.40
2023-04-18T00:22:13.197Z,5.30
2023-04-18T00:24:43.235Z,5.53
2023-04-18T00:27:11.661Z,5.88
2023-04-18T00:29:40.879Z,5.70
2023-04-18T00:32:09.365Z,5.47
2023-04-18T00:34:37.961Z,5.53
2023-04-18T00:37:06.497Z,6.65
2023-04-18T00:39:36.775Z,5.82
2023-04-18T00:42:07.170Z,6.07
2023-04-18T00:44:35.896Z,5.83
2023-04-18T00:47:04.387Z,6.10
2023-04-18T00:49:32.987Z,5.70
2023-04-18T00:52:01.723Z,5.65
2023-04-18T00:54:31.148Z,6.55
2023-04-18T00:56:59.941Z,5.87
2023-04-18T00:59:29.835Z,6.25
2023-04-18T01:01:58.740Z,6.50
2023-04-18T01:04:27.500Z,5.78
2023-04-18T01:06:56.806Z,5.80
2023-04-18T01:09:25.832Z,6.23
2023-04-18T01:11:54.304Z,5.43
2023-04-18T01:14:22.841Z,5.97
2023-04-18T01:16:53.190Z,6.00
2023-04-18T01:19:21.629Z,5.38
2023-04-18T01:21:50.388Z,5.17
2023-04-18T01:24:20.513Z,5.50
2023-04-18T01:26:48.996Z,5.28
2023-04-18T01:29:17.730Z,5.50
2023-04-18T01:31:46.371Z,6.03
2023-04-18T01:34:15.657Z,5.53
2023-04-18T01:36:44.476Z,5.90
2023-04-18T01:39:13.393Z,5.45
2023-04-18T01:41:43.730Z,5.50
2023-04-18T01:44:12.542Z,5.60
2023-04-18T01:46:41.468Z,5.47
2023-04-18T01:49:10.340Z,6.10
2023-04-18T01:51:39.979Z,6.53
2023-04-18T01:54:08.430Z,6.30
2023-04-18T01:56:36.945Z,6.38
2023-04-18T01:59:07.005Z,5.90
2023-04-18T02:01:35.514Z,5.75
2023-04-18T02:04:04.295Z,7.10
2023-04-18T02:06:33.011Z,6.20
2023-04-18T02:09:01.581Z,6.22
2023-04-18T02:11:30.016Z,6.00
2023-04-18T02:13:59.728Z,6.40
2023-04-18T02:16:29.662Z,6.95
2023-04-18T02:18:58.168Z,6.30
2023-04-18T02:21:26.637Z,6.40
2023-04-18T02:23:55.128Z,6.60
2023-04-18T02:26:23.974Z,6.07
2023-04-18T02:28:52.469Z,6.35
2023-04-18T02:31:21.192Z,6.03
2023-04-18T02:33:51.273Z,7.00
2023-04-18T02:36:22.634Z,7.67
2023-04-18T02:38:51.305Z,7.30
2023-04-18T02:41:19.791Z,8.10
2023-04-18T02:43:48.479Z,7.53
2023-04-18T02:46:17.560Z,7.63
2023-04-18T02:48:46.295Z,7.60
2023-04-18T02:51:16.235Z,7.53
2023-04-18T02:53:44.683Z,7.43
2023-04-18T02:56:14.775Z,7.03
2023-04-18T02:58:43.222Z,7.80
2023-04-18T03:01:11.727Z,7.73
2023-04-18T03:03:40.224Z,8.32
2023-04-18T03:06:09.054Z,7.07
2023-04-18T03:08:38.990Z,7.25
2023-04-18T03:11:07.504Z,7.50
2023-04-18T03:13:36.420Z,7.97
2023-04-18T03:16:05.552Z,7.65
2023-04-18T03:18:34.070Z,7.05
2023-04-18T03:21:02.602Z,6.93
2023-04-18T03:23:31.060Z,7.38
2023-04-18T03:26:01.059Z,7.60
2023-04-18T03:28:29.744Z,7.55
2023-04-18T03:30:58.226Z,7.57
2023-04-18T03:33:26.764Z,7.45
2023-04-18T03:35:55.236Z,7.20
2023-04-18T03:38:24.147Z,7.23
2023-04-18T03:40:52.713Z,6.70
2023-04-18T03:43:22.615Z,7.40
2023-04-18T03:45:51.233Z,6.55
2023-04-18T03:48:19.728Z,7.22
2023-04-18T03:50:48.430Z,6.97
2023-04-18T03:53:16.939Z,7.43
2023-04-18T03:55:45.581Z,7.80
2023-04-18T03:58:14.183Z,7.00
2023-04-18T04:00:44.106Z,7.15
2023-04-18T04:03:12.812Z,8.27
2023-04-18T04:05:41.437Z,8.30
2023-04-18T04:08:09.936Z,7.65
2023-04-18T04:10:38.495Z,7.78
2023-04-18T04:13:07.040Z,7.88
2023-04-18T04:15:35.545Z,7.30
2023-04-18T04:18:05.725Z,7.57
2023-04-18T04:20:34.379Z,7.45
2023-04-18T04:23:03.142Z,7.93
2023-04-18T04:25:33.321Z,8.23
2023-04-18T04:28:02.834Z,8.47
2023-04-18T04:30:31.843Z,7.00
2023-04-18T04:33:02.008Z,7.38
2023-04-18T04:35:32.217Z,7.07
2023-04-18T04:38:01.904Z,7.30
2023-04-18T04:40:30.522Z,7.17
2023-04-18T04:42:59.025Z,8.45
2023-04-18T04:45:27.530Z,7.32
2023-04-18T04:47:56.034Z,8.10
2023-04-18T04:50:24.713Z,8.13
2023-04-18T04:52:54.736Z,8.30
2023-04-18T04:55:23.198Z,7.68
2023-04-18T04:57:51.669Z,8.30
2023-04-18T05:00:21.875Z,8.80
2023-04-18T05:02:50.526Z,8.85
2023-04-18T05:05:19.087Z,8.97
2023-04-18T05:07:47.563Z,7.35
2023-04-18T05:10:17.516Z,8.10
2023-04-18T05:12:46.004Z,7.25
2023-04-18T05:15:16.888Z,7.47
2023-04-18T05:17:45.488Z,7.30
2023-04-18T05:20:14.406Z,7.43
2023-04-18T05:22:43.080Z,8.40
2023-04-18T05:25:12.391Z,7.22
2023-04-18T05:27:42.816Z,7.75
2023-04-18T05:30:12.687Z,8.07
2023-04-18T05:32:41.261Z,8.05
2023-04-18T05:35:10.760Z,8.95
2023-04-18T05:37:39.244Z,8.43
2023-04-18T05:40:10.330Z,7.40
2023-04-18T05:42:38.869Z,8.50
2023-04-18T05:45:10.515Z,7.55
2023-04-18T05:47:39.006Z,8.18
2023-04-18T05:50:10.437Z,7.43
2023-04-18T05:52:39.400Z,8.00
2023-04-18T05:55:08.608Z,7.90
2023-04-18T05:57:37.354Z,7.75
2023-04-18T06:00:11.510Z,7.53
2023-04-18T06:02:40.360Z,7.97
2023-04-18T06:05:10.324Z,8.05
2023-04-18T06:07:38.982Z,7.83
2023-04-18T06:10:13.331Z,7.65
2023-04-18T06:12:43.487Z,8.60
2023-04-18T06:15:13.731Z,8.43
2023-04-18T06:17:42.398Z,8.57
2023-04-18T06:20:12.527Z,8.30
2023-04-18T06:22:41.016Z,8.48
2023-04-18T06:25:10.775Z,8.07
2023-04-18T06:27:39.342Z,8.35
2023-04-18T06:30:10.662Z,6.72
2023-04-18T06:32:40.598Z,7.03
2023-04-18T06:35:09.788Z,7.55
2023-04-18T06:37:38.261Z,7.70
2023-04-18T06:40:08.405Z,6.20
2023-04-18T06:42:36.874Z,6.80
2023-04-18T06:45:06.759Z,6.83
2023-04-18T06:47:35.347Z,7.05
2023-04-18T06:50:06.176Z,6.90
2023-04-18T06:52:35.566Z,7.72
2023-04-18T06:55:04.116Z,6.65
2023-04-18T06:57:32.897Z,7.20
2023-04-18T07:00:01.369Z,9.75
2023-04-18T07:02:29.904Z,9.98
2023-04-18T07:04:58.592Z,8.43
2023-04-18T07:07:29.088Z,8.88
2023-04-18T07:09:57.541Z,7.27
2023-04-18T07:12:27.811Z,8.45
2023-04-18T07:14:56.620Z,10.18
2023-04-18T07:17:25.273Z,9.77
2023-04-18T07:19:53.777Z,6.95
2023-04-18T07:22:22.306Z,6.70
2023-04-18T07:24:52.162Z,7.00
2023-04-18T07:27:20.648Z,6.75
2023-04-18T07:29:49.644Z,7.65
2023-04-18T07:32:18.324Z,8.48
2023-04-18T07:34:47.037Z,12.40
2023-04-18T07:37:18.058Z,7.45
2023-04-18T07:39:46.515Z,6.35
2023-04-18T07:42:17.904Z,6.05
2023-04-18T07:44:47.039Z,5.43
2023-04-18T07:47:15.602Z,5.40
2023-04-18T07:49:46.292Z,5.80
2023-04-18T07:52:15.102Z,6.35
2023-04-18T07:54:43.591Z,6.13
2023-04-18T07:57:12.064Z,5.47
2023-04-18T07:59:42.119Z,5.20
2023-04-18T08:02:10.669Z,5.32
2023-04-18T08:04:39.472Z,5.28
2023-04-18T08:07:09.347Z,5.20
2023-04-18T08:09:37.845Z,4.38
2023-04-18T08:12:06.941Z,4.43
2023-04-18T08:14:35.453Z,4.10
2023-04-18T08:17:05.314Z,4.45
2023-04-18T08:19:33.771Z,4.40
2023-04-18T08:22:10.935Z,3.83
2023-04-18T08:24:41.682Z,4.17
2023-04-18T08:27:14.966Z,4.10
2023-04-18T08:29:44.738Z,4.10
2023-04-18T08:32:14.808Z,4.00
2023-04-18T08:34:43.801Z,3.97
2023-04-18T08:37:12.245Z,3.73
2023-04-18T08:39:40.794Z,4.03
2023-04-18T08:42:11.793Z,4.25
2023-04-18T08:44:40.291Z,3.70
2023-04-18T08:47:10.837Z,3.50
2023-04-18T08:52:31.805Z,3.75
2023-04-18T08:55:02.734Z,5.20
2023-04-18T08:57:31.380Z,4.45
2023-04-18T09:00:01.514Z,5.07
2023-04-18T09:02:42.634Z,5.63
2023-04-18T09:05:20.064Z,5.72
2023-04-18T09:07:49.647Z,5.70
2023-04-18T09:10:29.566Z,6.07
2023-04-18T09:12:59.677Z,5.88
2023-04-18T09:15:29.798Z,5.67
2023-04-18T09:17:59.834Z,6.35
2023-04-18T09:20:38.061Z,6.35
2023-04-18T09:23:11.116Z,5.82
2023-04-18T09:25:46.796Z,6.40
2023-04-18T09:28:28.184Z,6.47
2023-04-18T09:30:58.706Z,6.70
2023-04-18T09:33:29.354Z,7.18
2023-04-18T09:36:20.018Z,15.50
2023-04-18T09:38:49.063Z,7.05
2023-04-18T09:41:20.834Z,8.20
2023-04-18T09:43:50.284Z,13.15
2023-04-18T09:46:18.850Z,19.92
2023-04-18T09:48:47.594Z,8.07
2023-04-18T09:51:19.114Z,7.97
2023-04-18T09:53:48.038Z,10.17
2023-04-18T09:56:24.345Z,8.93
2023-04-18T09:58:58.571Z,9.15
2023-04-18T10:01:30.179Z,10.93
2023-04-18T10:04:02.055Z,8.90
2023-04-18T10:06:35.218Z,10.03
2023-04-18T10:09:06.084Z,9.30
2023-04-18T10:11:34.934Z,9.30
2023-04-18T10:14:08.282Z,9.40
2023-04-18T10:16:37.487Z,13.05
2023-04-18T10:19:21.830Z,9.93
2023-04-18T10:21:56.576Z,11.50
2023-04-18T10:24:56.374Z,11.32
2023-04-18T10:28:01.336Z,13.13
2023-04-18T10:30:57.049Z,11.15
2023-04-18T10:33:32.243Z,11.53
2023-04-18T10:36:14.422Z,11.48
2023-04-18T10:38:49.762Z,12.25
2023-04-18T10:41:27.159Z,12.07
2023-04-18T10:44:22.843Z,12.85
2023-04-18T10:47:31.545Z,19.33
2023-04-18T10:50:06.094Z,14.13
2023-04-18T10:52:35.219Z,14.57
2023-04-18T10:55:25.161Z,13.20
2023-04-18T10:57:56.193Z,18.70
2023-04-18T11:00:25.093Z,13.47
2023-04-18T11:02:56.678Z,13.07
2023-04-18T11:05:27.908Z,17.50
2023-04-18T11:07:56.917Z,12.95
2023-04-18T11:10:28.357Z,13.95
2023-04-18T11:12:59.540Z,12.70
2023-04-18T11:15:30.370Z,14.82
2023-04-18T11:18:02.380Z,16.13
2023-04-18T11:20:39.027Z,13.18
2023-04-18T11:23:19.921Z,13.77
2023-04-18T11:25:52.045Z,14.13
2023-04-18T11:28:22.362Z,15.60
2023-04-18T11:30:50.996Z,14.88
2023-04-18T11:33:20.373Z,18.95
2023-04-18T11:35:49.293Z,15.63
2023-04-18T11:38:18.637Z,19.33
2023-04-18T11:40:51.680Z,15.45
2023-04-18T11:43:23.768Z,18.67
2023-04-18T11:45:54.700Z,14.07
2023-04-18T11:48:23.690Z,16.15
2023-04-18T11:50:52.534Z,14.47
2023-04-18T11:53:34.619Z,14.25
2023-04-18T11:56:05.827Z,13.88
2023-04-18T11:58:36.423Z,14.55
2023-04-18T12:01:19.545Z,14.63
2023-04-18T12:04:02.655Z,16.87
2023-04-18T12:06:49.335Z,18.25
2023-04-18T12:09:18.293Z,14.25
2023-04-18T12:11:59.569Z,15.63
2023-04-18T12:14:29.254Z,14.18
2023-04-18T12:16:57.827Z,13.20
2023-04-18T12:19:28.753Z,14.25
2023-04-18T12:22:00.426Z,13.63
2023-04-18T12:24:30.034Z,15.40
2023-04-18T12:27:00.398Z,15.50
2023-04-18T12:29:30.428Z,40.80
2023-04-18T12:31:59.037Z,20.55
2023-04-18T12:34:27.655Z,16.85
2023-04-18T12:36:56.473Z,14.50
2023-04-18T12:39:26.046Z,13.95
2023-04-18T12:41:54.494Z,13.63
2023-04-18T12:44:24.714Z,15.45
2023-04-18T12:46:53.508Z,13.57
2023-04-18T12:49:22.067Z,14.27
2023-04-18T12:51:50.552Z,20.35
2023-04-18T12:54:19.054Z,12.83
2023-04-18T12:56:47.549Z,13.45
2023-04-18T12:59:16.286Z,15.00
2023-04-18T13:01:46.305Z,14.15
2023-04-18T13:04:15.427Z,13.30
2023-04-18T13:06:44.037Z,12.60
2023-04-18T13:09:12.689Z,13.30
2023-04-18T13:11:41.302Z,13.40
2023-04-18T13:14:09.793Z,12.10
2023-04-18T13:16:38.345Z,14.27
2023-04-18T13:19:08.248Z,13.23
2023-04-18T13:21:36.977Z,12.13
2023-04-18T13:24:06.182Z,11.77
2023-04-18T13:26:36.110Z,11.13
2023-04-18T13:29:05.805Z,10.88
2023-04-18T13:31:34.374Z,10.40
2023-04-18T13:34:02.922Z,9.02
2023-04-18T13:36:34.851Z,8.80
2023-04-18T13:39:05.933Z,9.05
2023-04-18T13:41:35.402Z,8.45
2023-04-18T13:44:03.906Z,8.13
2023-04-18T13:46:32.505Z,8.38
2023-04-18T13:49:01.082Z,8.55
2023-04-18T13:51:29.594Z,7.63
2023-04-18T13:54:01.201Z,7.82
2023-04-18T13:56:29.934Z,8.23
2023-04-18T13:58:58.417Z,8.15
2023-04-18T14:01:27.723Z,8.13
2023-04-18T14:03:56.422Z,7.15
2023-04-18T14:06:25.261Z,7.10
2023-04-18T14:08:53.710Z,7.37
2023-04-18T14:11:25.049Z,8.02
2023-04-18T14:13:53.754Z,7.40
2023-04-18T14:16:22.276Z,7.40
2023-04-18T14:18:50.784Z,7.63
2023-04-18T14:21:19.267Z,7.80
2023-04-18T14:23:47.728Z,6.93
2023-04-18T14:26:16.580Z,7.20
2023-04-18T14:28:47.104Z,6.95
2023-04-18T14:31:16.683Z,7.30
2023-04-18T14:33:45.288Z,7.13
2023-04-18T14:36:15.273Z,6.90
2023-04-18T14:38:43.913Z,7.15
2023-04-18T14:41:12.702Z,6.43
2023-04-18T14:43:41.204Z,7.10
2023-04-18T14:46:14.480Z,6.57
2023-04-18T14:48:43.086Z,5.88
2023-04-18T14:51:11.596Z,6.63
2023-04-18T14:53:41.067Z,6.28
2023-04-18T14:56:09.741Z,6.53
2023-04-18T14:58:38.280Z,5.90
2023-04-18T15:01:07.375Z,6.32
2023-04-18T15:03:37.477Z,5.82
2023-04-18T15:06:06.936Z,6.18
2023-04-18T15:08:35.463Z,6.53
2023-04-18T15:11:08.386Z,5.63
2023-04-18T15:13:37.129Z,6.28
2023-04-18T15:16:06.568Z,6.25
2023-04-18T15:18:36.507Z,5.78
2023-04-18T15:21:05.486Z,5.90
2023-04-18T15:23:34.489Z,5.37
2023-04-18T15:26:03.051Z,5.32
2023-04-18T15:28:32.749Z,5.50
2023-04-18T15:31:01.532Z,5.80
2023-04-18T15:33:30.056Z,5.32
2023-04-18T15:36:00.166Z,5.40
2023-04-18T15:38:29.383Z,4.70
2023-04-18T15:40:58.555Z,5.35
2023-04-18T15:43:27.288Z,5.68
2023-04-18T15:45:55.748Z,5.22
2023-04-18T15:48:24.476Z,4.77
2023-04-18T15:50:53.304Z,5.10
2023-04-18T15:53:23.172Z,4.88
2023-04-18T15:55:53.670Z,5.00
2023-04-18T15:58:24.002Z,4.80
2023-04-18T16:00:52.575Z,4.40
2023-04-18T16:03:21.478Z,4.35
2023-04-18T16:05:50.823Z,4.63
2023-04-18T16:08:19.430Z,4.65
2023-04-18T16:10:49.343Z,4.15
2023-04-18T16:13:17.823Z,3.90
2023-04-18T16:15:46.326Z,4.32
2023-04-18T16:18:15.085Z,4.57
2023-04-18T16:20:43.625Z,4.38
2023-04-18T16:23:12.144Z,4.10
2023-04-18T16:25:40.617Z,3.90
2023-04-18T16:28:10.516Z,4.38
2023-04-18T16:30:39.521Z,4.25
2023-04-18T16:33:08.312Z,5.82
2023-04-18T16:35:37.169Z,4.60
2023-04-18T16:38:05.638Z,5.90
2023-04-18T16:40:35.118Z,4.80
2023-04-18T16:43:03.625Z,4.55
2023-04-18T16:45:34.188Z,4.00
2023-04-18T16:48:02.709Z,4.40
2023-04-18T16:50:31.349Z,4.07
2023-04-18T16:53:00.108Z,3.95
2023-04-18T16:55:28.866Z,3.80
2023-04-18T16:57:57.315Z,4.47
2023-04-18T17:00:25.957Z,4.13
2023-04-18T17:02:56.241Z,4.10
2023-04-18T17:05:25.972Z,4.30
2023-04-18T17:07:56.049Z,4.65
2023-04-18T17:10:24.818Z,4.53
2023-04-18T17:12:53.492Z,5.40
2023-04-18T17:15:23.638Z,5.60
2023-04-18T17:17:52.151Z,4.15
2023-04-18T17:20:22.554Z,4.30
2023-04-18T17:22:51.183Z,4.35
2023-04-18T17:25:19.806Z,4.82
2023-04-18T17:27:48.306Z,4.30
2023-04-18T17:30:17.082Z,4.43
2023-04-18T17:32:46.964Z,4.38
2023-04-18T17:35:15.819Z,4.57
2023-04-18T17:37:45.938Z,3.90
2023-04-18T17:40:15.327Z,4.70
2023-04-18T17:42:43.853Z,6.32
2023-04-18T17:45:12.380Z,4.10
2023-04-18T17:47:41.296Z,4.28
2023-04-18T17:50:10.905Z,4.18
2023-04-18T17:52:39.669Z,5.27
2023-04-18T17:55:10.739Z,4.85
2023-04-18T17:57:39.225Z,4.25
2023-04-18T18:00:11.843Z,4.10
2023-04-18T18:02:41.741Z,3.95
2023-04-18T18:05:14.476Z,3.77
2023-04-18T18:07:47.479Z,4.05
2023-04-18T18:10:20.375Z,4.20
2023-04-18T18:12:49.294Z,3.97
2023-04-18T18:15:18.030Z,4.05
2023-04-18T18:17:46.578Z,4.00
2023-04-18T18:20:15.909Z,3.42
2023-04-18T18:22:44.803Z,3.70
2023-04-18T18:25:13.282Z,4.10
2023-04-18T18:27:43.194Z,4.22
2023-04-18T18:30:12.203Z,3.73
2023-04-18T18:32:40.863Z,4.20
2023-04-18T18:35:10.590Z,3.85
2023-04-18T18:37:39.325Z,3.95
2023-04-18T18:40:09.912Z,4.00
2023-04-18T18:42:39.290Z,3.60
2023-04-18T18:45:11.068Z,3.90
2023-04-18T18:47:40.338Z,4.45
2023-04-18T18:50:10.144Z,3.95
2023-04-18T18:52:40.986Z,4.20
2023-04-18T18:55:10.887Z,4.07
2023-04-18T18:57:39.477Z,3.92
2023-04-18T19:00:12.196Z,4.00
2023-04-18T19:02:41.127Z,3.83
2023-04-18T19:05:12.595Z,4.00
2023-04-18T19:07:43.553Z,3.93
2023-04-18T19:10:12.745Z,4.10
2023-04-18T19:12:41.210Z,4.20
2023-04-18T19:15:13.267Z,4.30
2023-04-18T19:17:44.215Z,4.10
2023-04-18T19:20:13.246Z,4.20
2023-04-18T19:22:41.769Z,4.22
2023-04-18T19:25:11.390Z,4.82
2023-04-18T19:27:42.244Z,4.32
2023-04-18T19:30:13.636Z,4.40
2023-04-18T19:32:42.408Z,4.23
2023-04-18T19:35:13.286Z,4.35
2023-04-18T19:37:42.018Z,4.93
2023-04-18T19:40:11.994Z,4.50
2023-04-18T19:42:41.140Z,4.70
2023-04-18T19:45:15.080Z,4.30
2023-04-18T19:47:44.550Z,4.60
2023-04-18T19:50:13.385Z,4.68
2023-04-18T19:52:41.994Z,4.00
2023-04-18T19:55:11.613Z,4.50
2023-04-18T19:57:41.608Z,4.40
2023-04-18T20:00:14.106Z,4.55
2023-04-18T20:02:43.477Z,4.22
2023-04-18T20:05:12.955Z,4.50
2023-04-18T20:07:41.887Z,4.40
2023-04-18T20:10:11.695Z,4.70
2023-04-18T20:12:40.288Z,4.38
2023-04-18T20:15:10.518Z,4.75
2023-04-18T20:17:40.407Z,4.78
2023-04-18T20:20:11.350Z,4.68
2023-04-18T20:22:40.454Z,4.97
2023-04-18T20:25:09.684Z,4.63
2023-04-18T20:27:38.147Z,4.47
2023-04-18T20:30:08.591Z,4.93
2023-04-18T20:32:37.126Z,4.40
2023-04-18T20:35:08.553Z,4.80
2023-04-18T20:37:41.448Z,4.50
2023-04-18T20:40:11.393Z,4.60
2023-04-18T20:42:39.939Z,4.78
2023-04-18T20:45:11.731Z,4.43
2023-04-18T20:47:41.552Z,4.63
2023-04-18T20:50:14.093Z,4.38
2023-04-18T20:52:43.116Z,4.90
2023-04-18T20:55:16.771Z,4.75
2023-04-18T20:57:45.648Z,4.68
2023-04-18T21:00:18.504Z,4.47
2023-04-18T21:02:47.339Z,4.68
2023-04-18T21:05:17.343Z,4.68
2023-04-18T21:07:46.180Z,5.10
2023-04-18T21:10:14.648Z,4.95
2023-04-18T21:12:43.844Z,4.30
2023-04-18T21:15:13.642Z,5.18
2023-04-18T21:17:42.353Z,4.80
2023-04-18T21:20:11.753Z,5.22
2023-04-18T21:22:42.622Z,4.72
2023-04-18T21:25:12.185Z,4.77
2023-04-18T21:27:40.669Z,4.80
2023-04-18T21:30:10.350Z,5.45
2023-04-18T21:32:38.887Z,5.30
2023-04-18T21:35:08.263Z,5.30
2023-04-18T21:37:36.731Z,4.57
2023-04-18T21:40:08.866Z,5.07
2023-04-18T21:42:37.956Z,5.57
2023-04-18T21:45:08.549Z,4.88
2023-04-18T21:47:37.080Z,4.82
2023-04-18T21:50:06.750Z,5.10
2023-04-18T21:52:35.544Z,4.55
2023-04-18T21:55:05.055Z,4.63
2023-04-18T21:57:34.923Z,4.43
2023-04-18T22:00:03.425Z,5.18
2023-04-18T22:02:32.276Z,4.80
2023-04-18T22:05:01.589Z,4.90
2023-04-18T22:07:31.151Z,5.10
2023-04-18T22:09:59.901Z,5.05
2023-04-18T22:12:28.418Z,5.18
2023-04-18T22:14:58.388Z,5.23
2023-04-18T22:17:27.208Z,5.57
2023-04-18T22:19:56.453Z,5.20
2023-04-18T22:22:24.997Z,5.13
2023-04-18T22:24:53.452Z,5.20
2023-04-18T22:27:21.939Z,4.83
2023-04-18T22:29:50.373Z,4.72
2023-04-18T22:32:20.280Z,5.55
2023-04-18T22:34:48.778Z,5.40
2023-04-18T22:37:17.450Z,4.80
2023-04-18T22:39:46.056Z,5.90
2023-04-18T22:42:14.582Z,5.18
2023-04-18T22:44:43.058Z,5.18
2023-04-18T22:47:11.579Z,4.80
2023-04-18T22:49:42.091Z,5.18
2023-04-18T22:52:10.734Z,5.00
2023-04-18T22:54:40.951Z,4.72
2023-04-18T22:57:09.856Z,5.30
2023-04-18T22:59:38.397Z,4.22
2023-04-18T23:02:06.987Z,5.30
2023-04-18T23:04:36.159Z,5.00
2023-04-18T23:07:06.123Z,4.95
2023-04-18T23:09:34.914Z,5.60
2023-04-18T23:12:03.553Z,5.43
2023-04-18T23:14:32.032Z,5.20
2023-04-18T23:17:00.694Z,5.03
2023-04-18T23:19:29.108Z,5.57
2023-04-18T23:21:57.554Z,5.03
2023-04-18T23:24:27.709Z,5.15
2023-04-18T23:26:57.077Z,5.10
2023-04-18T23:29:25.562Z,4.90
2023-04-18T23:31:54.120Z,4.85
2023-04-18T23:34:22.995Z,5.20
2023-04-18T23:36:51.409Z,4.80
2023-04-18T23:39:19.888Z,5.32
2023-04-18T23:41:49.790Z,4.67
2023-04-18T23:44:18.236Z,4.90
2023-04-18T23:46:46.715Z,5.50
2023-04-18T23:49:15.230Z,5.50
2023-04-18T23:51:44.260Z,5.18
2023-04-18T23:54:13.493Z,4.50
2023-04-18T23:56:42.048Z,5.10
2023-04-18T23:59:11.872Z,5.78
